sensor_id;sensor_type;location;lat;lon;timestamp;temperature;humidity
45008;DHT22;30743;52.008;5.644;2023-06-24T00:02:17;24.20;99.90
45008;DHT22;30743;52.008;5.644;2023-06-24T00:04:42;24.20;99.90
45008;DHT22;30743;52.008;5.644;2023-06-24T00:07:08;24.10;99.90
45008;DHT22;30743;52.008;5.644;2023-06-24T00:09:33;24.10;99.90
45008;DHT22;30743;52.008;5.644;2023-06-24T00:11:59;24.00;99.90
45008;DHT22;30743;52.008;5.644;2023-06-24T00:14:26;24.00;99.90
45008;DHT22;30743;52.008;5.644;2023-06-24T00:16:52;24.00;99.90
45008;DHT22;30743;52.008;5.644;2023-06-24T00:19:19;24.00;99.90
45008;DHT22;30743;52.008;5.644;2023-06-24T00:21:45;23.90;99.90
45008;DHT22;30743;52.008;5.644;2023-06-24T00:24:10;23.90;99.90
45008;DHT22;30743;52.008;5.644;2023-06-24T00:26:36;23.90;99.90
45008;DHT22;30743;52.008;5.644;2023-06-24T00:29:01;23.90;99.90
45008;DHT22;30743;52.008;5.644;2023-06-24T00:31:27;23.80;99.90
45008;DHT22;30743;52.008;5.644;2023-06-24T00:33:52;23.80;99.90
45008;DHT22;30743;52.008;5.644;2023-06-24T00:36:18;23.80;99.90
45008;DHT22;30743;52.008;5.644;2023-06-24T00:38:43;23.80;99.90
45008;DHT22;30743;52.008;5.644;2023-06-24T00:41:10;23.70;99.90
45008;DHT22;30743;52.008;5.644;2023-06-24T00:43:35;23.70;99.90
45008;DHT22;30743;52.008;5.644;2023-06-24T00:46:01;23.70;99.90
45008;DHT22;30743;52.008;5.644;2023-06-24T00:48:26;23.70;99.90
45008;DHT22;30743;52.008;5.644;2023-06-24T00:50:52;23.70;99.90
45008;DHT22;30743;52.008;5.644;2023-06-24T00:53:18;23.60;99.90
45008;DHT22;30743;52.008;5.644;2023-06-24T00:55:47;23.40;99.90
45008;DHT22;30743;52.008;5.644;2023-06-24T00:58:13;23.40;99.90
45008;DHT22;30743;52.008;5.644;2023-06-24T01:00:43;23.30;99.90
45008;DHT22;30743;52.008;5.644;2023-06-24T01:03:11;23.30;99.90
45008;DHT22;30743;52.008;5.644;2023-06-24T01:05:40;23.30;99.90
45008;DHT22;30743;52.008;5.644;2023-06-24T01:08:06;23.30;99.90
45008;DHT22;30743;52.008;5.644;2023-06-24T01:10:32;23.20;99.90
45008;DHT22;30743;52.008;5.644;2023-06-24T01:12:58;23.30;99.90
45008;DHT22;30743;52.008;5.644;2023-06-24T01:15:24;23.30;99.90
45008;DHT22;30743;52.008;5.644;2023-06-24T01:18:04;23.40;99.90
45008;DHT22;30743;52.008;5.644;2023-06-24T01:26:21;23.40;99.90
45008;DHT22;30743;52.008;5.644;2023-06-24T01:34:37;23.40;99.90
45008;DHT22;30743;52.008;5.644;2023-06-24T01:37:32;23.40;99.90
45008;DHT22;30743;52.008;5.644;2023-06-24T01:40:13;23.40;99.90
45008;DHT22;30743;52.008;5.644;2023-06-24T01:42:41;23.40;99.90
45008;DHT22;30743;52.008;5.644;2023-06-24T01:45:10;23.30;99.90
45008;DHT22;30743;52.008;5.644;2023-06-24T01:47:38;23.30;99.90
45008;DHT22;30743;52.008;5.644;2023-06-24T01:50:07;23.40;99.90
45008;DHT22;30743;52.008;5.644;2023-06-24T01:52:34;23.40;99.90
45008;DHT22;30743;52.008;5.644;2023-06-24T01:55:00;23.40;99.90
45008;DHT22;30743;52.008;5.644;2023-06-24T01:57:27;23.40;99.90
45008;DHT22;30743;52.008;5.644;2023-06-24T01:59:55;23.40;99.90
45008;DHT22;30743;52.008;5.644;2023-06-24T02:02:22;23.30;99.90
45008;DHT22;30743;52.008;5.644;2023-06-24T02:04:49;23.30;99.90
45008;DHT22;30743;52.008;5.644;2023-06-24T02:07:16;23.40;99.90
45008;DHT22;30743;52.008;5.644;2023-06-24T02:09:44;23.40;99.90
45008;DHT22;30743;52.008;5.644;2023-06-24T02:12:11;23.30;99.90
45008;DHT22;30743;52.008;5.644;2023-06-24T02:14:38;23.30;99.90
45008;DHT22;30743;52.008;5.644;2023-06-24T02:17:06;23.30;99.90
45008;DHT22;30743;52.008;5.644;2023-06-24T02:19:33;23.30;99.90
45008;DHT22;30743;52.008;5.644;2023-06-24T02:21:59;23.30;99.90
45008;DHT22;30743;52.008;5.644;2023-06-24T02:24:27;23.30;99.90
45008;DHT22;30743;52.008;5.644;2023-06-24T02:26:53;23.30;99.90
45008;DHT22;30743;52.008;5.644;2023-06-24T02:29:19;23.20;99.90
45008;DHT22;30743;52.008;5.644;2023-06-24T02:31:45;23.20;99.90
45008;DHT22;30743;52.008;5.644;2023-06-24T02:34:11;23.20;99.90
45008;DHT22;30743;52.008;5.644;2023-06-24T02:36:36;23.20;99.90
45008;DHT22;30743;52.008;5.644;2023-06-24T02:39:02;23.20;99.90
45008;DHT22;30743;52.008;5.644;2023-06-24T02:41:28;23.10;99.90
45008;DHT22;30743;52.008;5.644;2023-06-24T02:43:53;23.10;99.90
45008;DHT22;30743;52.008;5.644;2023-06-24T02:46:20;23.10;99.90
45008;DHT22;30743;52.008;5.644;2023-06-24T02:48:47;23.10;99.90
45008;DHT22;30743;52.008;5.644;2023-06-24T02:51:13;23.10;99.90
45008;DHT22;30743;52.008;5.644;2023-06-24T02:53:39;23.10;99.90
45008;DHT22;30743;52.008;5.644;2023-06-24T02:56:06;23.00;99.90
45008;DHT22;30743;52.008;5.644;2023-06-24T02:58:33;23.00;99.90
45008;DHT22;30743;52.008;5.644;2023-06-24T03:01:01;23.00;99.90
45008;DHT22;30743;52.008;5.644;2023-06-24T03:03:28;22.90;99.90
45008;DHT22;30743;52.008;5.644;2023-06-24T03:05:55;22.90;99.90
45008;DHT22;30743;52.008;5.644;2023-06-24T03:08:24;22.90;99.90
45008;DHT22;30743;52.008;5.644;2023-06-24T03:10:56;22.90;99.90
45008;DHT22;30743;52.008;5.644;2023-06-24T03:13:22;22.90;99.90
45008;DHT22;30743;52.008;5.644;2023-06-24T03:15:48;22.80;99.90
45008;DHT22;30743;52.008;5.644;2023-06-24T03:18:14;22.80;99.90
45008;DHT22;30743;52.008;5.644;2023-06-24T03:20:39;22.80;99.90
45008;DHT22;30743;52.008;5.644;2023-06-24T03:23:06;22.80;99.90
45008;DHT22;30743;52.008;5.644;2023-06-24T03:25:32;22.80;99.90
45008;DHT22;30743;52.008;5.644;2023-06-24T03:27:58;22.70;99.90
45008;DHT22;30743;52.008;5.644;2023-06-24T03:30:26;22.90;99.90
45008;DHT22;30743;52.008;5.644;2023-06-24T03:32:51;22.70;99.90
45008;DHT22;30743;52.008;5.644;2023-06-24T03:35:17;22.70;99.90
45008;DHT22;30743;52.008;5.644;2023-06-24T03:37:43;22.70;99.90
45008;DHT22;30743;52.008;5.644;2023-06-24T03:40:08;22.70;99.90
45008;DHT22;30743;52.008;5.644;2023-06-24T03:42:34;22.70;99.90
45008;DHT22;30743;52.008;5.644;2023-06-24T03:44:59;22.70;99.90
45008;DHT22;30743;52.008;5.644;2023-06-24T03:47:25;22.70;99.90
45008;DHT22;30743;52.008;5.644;2023-06-24T03:49:50;22.70;99.90
45008;DHT22;30743;52.008;5.644;2023-06-24T03:52:17;22.70;99.90
45008;DHT22;30743;52.008;5.644;2023-06-24T03:54:43;22.70;99.90
45008;DHT22;30743;52.008;5.644;2023-06-24T03:57:08;22.70;99.90
45008;DHT22;30743;52.008;5.644;2023-06-24T03:59:34;22.70;99.90
45008;DHT22;30743;52.008;5.644;2023-06-24T04:01:59;22.70;99.90
45008;DHT22;30743;52.008;5.644;2023-06-24T04:04:26;22.70;99.90
45008;DHT22;30743;52.008;5.644;2023-06-24T04:06:51;22.70;99.90
45008;DHT22;30743;52.008;5.644;2023-06-24T04:09:17;22.60;99.90
45008;DHT22;30743;52.008;5.644;2023-06-24T04:11:42;22.70;99.90
45008;DHT22;30743;52.008;5.644;2023-06-24T04:14:08;22.70;99.90
45008;DHT22;30743;52.008;5.644;2023-06-24T04:16:35;22.80;99.90
45008;DHT22;30743;52.008;5.644;2023-06-24T04:19:00;22.80;99.90
45008;DHT22;30743;52.008;5.644;2023-06-24T04:21:26;22.80;99.90
45008;DHT22;30743;52.008;5.644;2023-06-24T04:23:52;22.80;99.90
45008;DHT22;30743;52.008;5.644;2023-06-24T04:26:17;22.80;99.90
45008;DHT22;30743;52.008;5.644;2023-06-24T04:28:43;22.90;99.90
45008;DHT22;30743;52.008;5.644;2023-06-24T04:31:08;23.00;99.90
45008;DHT22;30743;52.008;5.644;2023-06-24T04:33:34;23.10;99.90
45008;DHT22;30743;52.008;5.644;2023-06-24T04:35:59;23.00;99.90
45008;DHT22;30743;52.008;5.644;2023-06-24T04:38:25;23.10;99.90
45008;DHT22;30743;52.008;5.644;2023-06-24T04:40:51;23.20;99.90
45008;DHT22;30743;52.008;5.644;2023-06-24T04:43:16;23.20;99.90
45008;DHT22;30743;52.008;5.644;2023-06-24T04:45:42;23.30;99.90
45008;DHT22;30743;52.008;5.644;2023-06-24T04:48:07;23.30;99.90
45008;DHT22;30743;52.008;5.644;2023-06-24T04:50:33;23.40;99.90
45008;DHT22;30743;52.008;5.644;2023-06-24T04:52:58;23.50;99.90
45008;DHT22;30743;52.008;5.644;2023-06-24T04:55:26;23.50;99.90
45008;DHT22;30743;52.008;5.644;2023-06-24T04:57:51;23.60;99.90
45008;DHT22;30743;52.008;5.644;2023-06-24T05:00:17;23.70;99.90
45008;DHT22;30743;52.008;5.644;2023-06-24T05:02:42;23.70;99.90
45008;DHT22;30743;52.008;5.644;2023-06-24T05:05:08;23.60;99.90
45008;DHT22;30743;52.008;5.644;2023-06-24T05:07:33;23.70;99.90
45008;DHT22;30743;52.008;5.644;2023-06-24T05:09:59;23.70;99.90
45008;DHT22;30743;52.008;5.644;2023-06-24T05:12:24;23.80;99.90
45008;DHT22;30743;52.008;5.644;2023-06-24T05:14:50;23.80;99.90
45008;DHT22;30743;52.008;5.644;2023-06-24T05:17:18;23.90;99.90
45008;DHT22;30743;52.008;5.644;2023-06-24T05:19:43;24.00;99.90
45008;DHT22;30743;52.008;5.644;2023-06-24T05:22:09;24.10;99.90
45008;DHT22;30743;52.008;5.644;2023-06-24T05:24:34;24.10;99.90
45008;DHT22;30743;52.008;5.644;2023-06-24T05:27:04;24.10;99.90
45008;DHT22;30743;52.008;5.644;2023-06-24T05:29:31;24.30;99.90
45008;DHT22;30743;52.008;5.644;2023-06-24T05:31:57;24.40;99.90
45008;DHT22;30743;52.008;5.644;2023-06-24T05:34:23;24.60;99.90
45008;DHT22;30743;52.008;5.644;2023-06-24T05:36:49;24.80;99.90
45008;DHT22;30743;52.008;5.644;2023-06-24T05:39:14;24.60;99.90
45008;DHT22;30743;52.008;5.644;2023-06-24T05:41:40;24.50;99.90
45008;DHT22;30743;52.008;5.644;2023-06-24T05:44:09;24.70;99.90
45008;DHT22;30743;52.008;5.644;2023-06-24T05:46:37;24.80;99.90
45008;DHT22;30743;52.008;5.644;2023-06-24T05:49:03;24.70;99.90
45008;DHT22;30743;52.008;5.644;2023-06-24T05:51:30;24.70;99.90
45008;DHT22;30743;52.008;5.644;2023-06-24T05:53:55;24.90;99.90
45008;DHT22;30743;52.008;5.644;2023-06-24T05:56:21;25.10;99.90
45008;DHT22;30743;52.008;5.644;2023-06-24T05:58:48;25.10;99.90
45008;DHT22;30743;52.008;5.644;2023-06-24T06:01:13;25.20;99.90
45008;DHT22;30743;52.008;5.644;2023-06-24T06:03:39;25.30;99.90
45008;DHT22;30743;52.008;5.644;2023-06-24T06:06:05;25.40;99.90
45008;DHT22;30743;52.008;5.644;2023-06-24T06:08:30;25.40;99.90
45008;DHT22;30743;52.008;5.644;2023-06-24T06:10:56;25.20;99.90
45008;DHT22;30743;52.008;5.644;2023-06-24T06:13:22;25.00;99.90
45008;DHT22;30743;52.008;5.644;2023-06-24T06:15:47;25.20;99.90
45008;DHT22;30743;52.008;5.644;2023-06-24T06:18:13;25.30;99.90
45008;DHT22;30743;52.008;5.644;2023-06-24T06:20:38;25.00;99.90
45008;DHT22;30743;52.008;5.644;2023-06-24T06:23:04;25.40;99.90
45008;DHT22;30743;52.008;5.644;2023-06-24T06:25:29;25.60;99.90
45008;DHT22;30743;52.008;5.644;2023-06-24T06:27:55;25.80;99.90
45008;DHT22;30743;52.008;5.644;2023-06-24T06:30:20;26.00;99.90
45008;DHT22;30743;52.008;5.644;2023-06-24T06:32:46;26.20;99.90
45008;DHT22;30743;52.008;5.644;2023-06-24T06:35:11;26.30;99.90
45008;DHT22;30743;52.008;5.644;2023-06-24T06:37:37;26.40;99.90
45008;DHT22;30743;52.008;5.644;2023-06-24T06:40:03;26.50;99.90
45008;DHT22;30743;52.008;5.644;2023-06-24T06:42:29;26.70;99.90
45008;DHT22;30743;52.008;5.644;2023-06-24T06:44:55;26.70;99.90
45008;DHT22;30743;52.008;5.644;2023-06-24T06:47:20;26.90;99.90
45008;DHT22;30743;52.008;5.644;2023-06-24T06:49:46;26.90;99.90
45008;DHT22;30743;52.008;5.644;2023-06-24T06:52:11;27.00;99.90
45008;DHT22;30743;52.008;5.644;2023-06-24T06:54:37;27.00;99.90
45008;DHT22;30743;52.008;5.644;2023-06-24T06:57:03;27.10;99.90
45008;DHT22;30743;52.008;5.644;2023-06-24T06:59:31;27.20;99.90
45008;DHT22;30743;52.008;5.644;2023-06-24T07:01:57;27.30;99.90
45008;DHT22;30743;52.008;5.644;2023-06-24T07:04:23;27.30;99.90
45008;DHT22;30743;52.008;5.644;2023-06-24T07:06:48;27.40;99.90
45008;DHT22;30743;52.008;5.644;2023-06-24T07:09:14;27.40;99.90
45008;DHT22;30743;52.008;5.644;2023-06-24T07:11:40;27.50;99.90
45008;DHT22;30743;52.008;5.644;2023-06-24T07:14:06;27.50;99.90
45008;DHT22;30743;52.008;5.644;2023-06-24T07:16:31;27.60;99.90
45008;DHT22;30743;52.008;5.644;2023-06-24T07:18:57;27.60;99.80
45008;DHT22;30743;52.008;5.644;2023-06-24T07:21:23;27.70;99.60
45008;DHT22;30743;52.008;5.644;2023-06-24T07:23:48;27.80;99.40
45008;DHT22;30743;52.008;5.644;2023-06-24T07:26:13;27.90;99.30
45008;DHT22;30743;52.008;5.644;2023-06-24T07:28:39;27.90;97.80
45008;DHT22;30743;52.008;5.644;2023-06-24T07:31:04;28.00;97.40
45008;DHT22;30743;52.008;5.644;2023-06-24T07:33:30;28.00;97.50
45008;DHT22;30743;52.008;5.644;2023-06-24T07:35:56;28.10;96.40
45008;DHT22;30743;52.008;5.644;2023-06-24T07:38:22;28.20;96.40
45008;DHT22;30743;52.008;5.644;2023-06-24T07:40:47;28.20;95.50
45008;DHT22;30743;52.008;5.644;2023-06-24T07:43:13;28.30;95.70
45008;DHT22;30743;52.008;5.644;2023-06-24T07:45:39;28.30;96.00
45008;DHT22;30743;52.008;5.644;2023-06-24T07:48:04;28.40;96.20
45008;DHT22;30743;52.008;5.644;2023-06-24T07:50:30;28.50;96.60
45008;DHT22;30743;52.008;5.644;2023-06-24T07:52:56;28.50;96.40
45008;DHT22;30743;52.008;5.644;2023-06-24T07:55:22;28.60;95.90
45008;DHT22;30743;52.008;5.644;2023-06-24T07:57:48;28.70;94.80
45008;DHT22;30743;52.008;5.644;2023-06-24T08:00:14;28.70;95.20
45008;DHT22;30743;52.008;5.644;2023-06-24T08:02:41;28.80;95.40
45008;DHT22;30743;52.008;5.644;2023-06-24T08:05:07;28.90;94.50
45008;DHT22;30743;52.008;5.644;2023-06-24T08:07:32;28.90;93.90
45008;DHT22;30743;52.008;5.644;2023-06-24T08:09:58;29.00;93.00
45008;DHT22;30743;52.008;5.644;2023-06-24T08:12:23;29.10;93.60
45008;DHT22;30743;52.008;5.644;2023-06-24T08:14:49;29.10;93.50
45008;DHT22;30743;52.008;5.644;2023-06-24T08:17:14;29.20;93.50
45008;DHT22;30743;52.008;5.644;2023-06-24T08:19:40;29.20;93.50
45008;DHT22;30743;52.008;5.644;2023-06-24T08:22:05;29.30;93.30
45008;DHT22;30743;52.008;5.644;2023-06-24T08:24:31;29.50;93.70
45008;DHT22;30743;52.008;5.644;2023-06-24T08:26:57;29.40;93.10
45008;DHT22;30743;52.008;5.644;2023-06-24T08:29:22;29.50;92.50
45008;DHT22;30743;52.008;5.644;2023-06-24T08:31:48;29.60;92.40
45008;DHT22;30743;52.008;5.644;2023-06-24T08:34:13;29.70;91.60
45008;DHT22;30743;52.008;5.644;2023-06-24T08:36:39;29.80;91.70
45008;DHT22;30743;52.008;5.644;2023-06-24T08:39:04;30.00;92.00
45008;DHT22;30743;52.008;5.644;2023-06-24T08:41:30;30.00;92.30
45008;DHT22;30743;52.008;5.644;2023-06-24T08:43:55;30.20;92.10
45008;DHT22;30743;52.008;5.644;2023-06-24T08:46:24;30.60;91.60
45008;DHT22;30743;52.008;5.644;2023-06-24T08:48:54;30.40;91.60
45008;DHT22;30743;52.008;5.644;2023-06-24T08:51:27;30.60;92.00
45008;DHT22;30743;52.008;5.644;2023-06-24T08:53:55;30.70;91.90
45008;DHT22;30743;52.008;5.644;2023-06-24T08:56:20;30.90;91.80
45008;DHT22;30743;52.008;5.644;2023-06-24T08:58:46;31.00;91.30
45008;DHT22;30743;52.008;5.644;2023-06-24T09:01:12;31.20;90.60
45008;DHT22;30743;52.008;5.644;2023-06-24T09:03:38;31.30;90.80
45008;DHT22;30743;52.008;5.644;2023-06-24T09:06:03;31.50;90.00
45008;DHT22;30743;52.008;5.644;2023-06-24T09:08:29;31.60;89.70
45008;DHT22;30743;52.008;5.644;2023-06-24T09:10:55;31.80;90.10
45008;DHT22;30743;52.008;5.644;2023-06-24T09:13:20;32.00;90.30
45008;DHT22;30743;52.008;5.644;2023-06-24T09:15:48;32.20;90.40
45008;DHT22;30743;52.008;5.644;2023-06-24T09:18:13;32.30;89.90
45008;DHT22;30743;52.008;5.644;2023-06-24T09:20:42;32.40;88.30
45008;DHT22;30743;52.008;5.644;2023-06-24T09:23:10;32.60;88.60
45008;DHT22;30743;52.008;5.644;2023-06-24T09:25:36;32.80;87.30
45008;DHT22;30743;52.008;5.644;2023-06-24T09:28:02;32.90;87.00
45008;DHT22;30743;52.008;5.644;2023-06-24T09:30:28;33.10;86.90
45008;DHT22;30743;52.008;5.644;2023-06-24T09:32:54;33.20;87.80
45008;DHT22;30743;52.008;5.644;2023-06-24T09:35:21;33.40;86.00
45008;DHT22;30743;52.008;5.644;2023-06-24T09:37:57;33.60;85.90
45008;DHT22;30743;52.008;5.644;2023-06-24T09:40:24;33.70;86.20
45008;DHT22;30743;52.008;5.644;2023-06-24T09:42:52;33.80;84.80
45008;DHT22;30743;52.008;5.644;2023-06-24T09:45:28;33.80;82.80
45008;DHT22;30743;52.008;5.644;2023-06-24T09:47:55;34.10;83.90
45008;DHT22;30743;52.008;5.644;2023-06-24T09:50:21;34.20;82.40
45008;DHT22;30743;52.008;5.644;2023-06-24T09:52:48;34.20;81.70
45008;DHT22;30743;52.008;5.644;2023-06-24T09:55:15;34.60;81.00
45008;DHT22;30743;52.008;5.644;2023-06-24T09:57:46;34.50;84.10
45008;DHT22;30743;52.008;5.644;2023-06-24T10:00:14;34.60;84.10
45008;DHT22;30743;52.008;5.644;2023-06-24T10:02:44;34.80;82.80
45008;DHT22;30743;52.008;5.644;2023-06-24T10:05:11;35.00;84.10
45008;DHT22;30743;52.008;5.644;2023-06-24T10:07:39;35.10;83.30
45008;DHT22;30743;52.008;5.644;2023-06-24T10:10:05;35.20;82.20
45008;DHT22;30743;52.008;5.644;2023-06-24T10:12:31;35.30;82.00
45008;DHT22;30743;52.008;5.644;2023-06-24T10:14:58;35.50;80.90
45008;DHT22;30743;52.008;5.644;2023-06-24T10:17:24;35.60;81.20
45008;DHT22;30743;52.008;5.644;2023-06-24T10:19:52;35.80;81.60
45008;DHT22;30743;52.008;5.644;2023-06-24T10:22:22;35.90;79.50
45008;DHT22;30743;52.008;5.644;2023-06-24T10:24:50;36.10;80.40
45008;DHT22;30743;52.008;5.644;2023-06-24T10:27:19;36.20;80.70
45008;DHT22;30743;52.008;5.644;2023-06-24T10:29:53;36.40;79.80
45008;DHT22;30743;52.008;5.644;2023-06-24T10:32:19;36.60;81.40
45008;DHT22;30743;52.008;5.644;2023-06-24T10:34:47;36.80;78.70
45008;DHT22;30743;52.008;5.644;2023-06-24T10:37:14;36.90;79.00
45008;DHT22;30743;52.008;5.644;2023-06-24T10:39:56;37.00;80.90
45008;DHT22;30743;52.008;5.644;2023-06-24T10:42:28;37.20;77.30
45008;DHT22;30743;52.008;5.644;2023-06-24T10:47:46;37.40;79.30
45008;DHT22;30743;52.008;5.644;2023-06-24T10:50:14;37.40;76.60
45008;DHT22;30743;52.008;5.644;2023-06-24T10:52:45;37.50;77.70
45008;DHT22;30743;52.008;5.644;2023-06-24T10:55:13;37.70;75.30
45008;DHT22;30743;52.008;5.644;2023-06-24T10:57:39;37.70;76.60
45008;DHT22;30743;52.008;5.644;2023-06-24T11:00:05;37.70;75.20
45008;DHT22;30743;52.008;5.644;2023-06-24T11:02:31;37.70;75.40
45008;DHT22;30743;52.008;5.644;2023-06-24T11:05:01;37.70;76.00
45008;DHT22;30743;52.008;5.644;2023-06-24T11:07:29;37.90;78.00
45008;DHT22;30743;52.008;5.644;2023-06-24T11:12:34;38.10;75.00
45008;DHT22;30743;52.008;5.644;2023-06-24T11:15:03;38.30;75.40
45008;DHT22;30743;52.008;5.644;2023-06-24T11:17:29;38.40;74.80
45008;DHT22;30743;52.008;5.644;2023-06-24T11:19:56;38.50;74.20
45008;DHT22;30743;52.008;5.644;2023-06-24T11:22:23;38.70;73.70
45008;DHT22;30743;52.008;5.644;2023-06-24T11:24:48;38.70;74.90
45008;DHT22;30743;52.008;5.644;2023-06-24T11:27:14;38.80;74.40
45008;DHT22;30743;52.008;5.644;2023-06-24T11:29:40;38.90;73.30
45008;DHT22;30743;52.008;5.644;2023-06-24T11:32:09;38.90;75.90
45008;DHT22;30743;52.008;5.644;2023-06-24T11:34:36;39.10;73.90
45008;DHT22;30743;52.008;5.644;2023-06-24T11:37:13;39.10;73.30
45008;DHT22;30743;52.008;5.644;2023-06-24T11:39:39;39.20;73.40
45008;DHT22;30743;52.008;5.644;2023-06-24T11:42:09;39.40;74.60
45008;DHT22;30743;52.008;5.644;2023-06-24T11:44:35;39.30;73.10
45008;DHT22;30743;52.008;5.644;2023-06-24T11:47:09;39.40;72.00
45008;DHT22;30743;52.008;5.644;2023-06-24T11:49:51;39.60;72.60
45008;DHT22;30743;52.008;5.644;2023-06-24T11:52:17;39.60;71.00
45008;DHT22;30743;52.008;5.644;2023-06-24T11:54:43;39.70;71.60
45008;DHT22;30743;52.008;5.644;2023-06-24T11:57:09;39.80;71.30
45008;DHT22;30743;52.008;5.644;2023-06-24T11:59:35;40.00;69.90
45008;DHT22;30743;52.008;5.644;2023-06-24T12:02:01;40.00;69.90
45008;DHT22;30743;52.008;5.644;2023-06-24T12:04:32;40.00;70.20
45008;DHT22;30743;52.008;5.644;2023-06-24T12:06:59;40.10;70.50
45008;DHT22;30743;52.008;5.644;2023-06-24T12:09:25;40.20;68.70
45008;DHT22;30743;52.008;5.644;2023-06-24T12:11:51;40.10;72.80
45008;DHT22;30743;52.008;5.644;2023-06-24T12:14:17;40.10;70.90
45008;DHT22;30743;52.008;5.644;2023-06-24T12:16:43;40.20;71.10
45008;DHT22;30743;52.008;5.644;2023-06-24T12:19:08;40.30;70.50
45008;DHT22;30743;52.008;5.644;2023-06-24T12:21:35;40.40;70.00
45008;DHT22;30743;52.008;5.644;2023-06-24T12:24:03;40.40;70.80
45008;DHT22;30743;52.008;5.644;2023-06-24T12:26:28;40.50;71.60
45008;DHT22;30743;52.008;5.644;2023-06-24T12:28:55;40.60;70.80
45008;DHT22;30743;52.008;5.644;2023-06-24T12:31:21;40.70;70.00
45008;DHT22;30743;52.008;5.644;2023-06-24T12:33:47;40.70;69.00
45008;DHT22;30743;52.008;5.644;2023-06-24T12:36:13;40.70;70.40
45008;DHT22;30743;52.008;5.644;2023-06-24T12:38:38;40.70;69.30
45008;DHT22;30743;52.008;5.644;2023-06-24T12:41:04;40.70;69.50
45008;DHT22;30743;52.008;5.644;2023-06-24T12:43:29;40.70;67.40
45008;DHT22;30743;52.008;5.644;2023-06-24T12:45:55;40.60;67.50
45008;DHT22;30743;52.008;5.644;2023-06-24T12:48:21;40.80;69.60
45008;DHT22;30743;52.008;5.644;2023-06-24T12:50:46;40.90;69.20
45008;DHT22;30743;52.008;5.644;2023-06-24T12:53:14;41.00;68.30
45008;DHT22;30743;52.008;5.644;2023-06-24T12:55:41;41.00;68.00
45008;DHT22;30743;52.008;5.644;2023-06-24T12:58:07;41.10;67.20
45008;DHT22;30743;52.008;5.644;2023-06-24T13:00:32;41.10;68.90
45008;DHT22;30743;52.008;5.644;2023-06-24T13:02:58;41.10;68.90
45008;DHT22;30743;52.008;5.644;2023-06-24T13:05:24;41.20;67.30
45008;DHT22;30743;52.008;5.644;2023-06-24T13:07:50;41.30;66.50
45008;DHT22;30743;52.008;5.644;2023-06-24T13:10:15;41.30;66.00
45008;DHT22;30743;52.008;5.644;2023-06-24T13:12:41;41.30;67.30
45008;DHT22;30743;52.008;5.644;2023-06-24T13:15:07;41.30;66.20
45008;DHT22;30743;52.008;5.644;2023-06-24T13:17:34;41.40;68.40
45008;DHT22;30743;52.008;5.644;2023-06-24T13:20:00;41.50;66.20
45008;DHT22;30743;52.008;5.644;2023-06-24T13:22:28;41.30;65.60
45008;DHT22;30743;52.008;5.644;2023-06-24T13:24:53;41.50;66.60
45008;DHT22;30743;52.008;5.644;2023-06-24T13:27:19;41.40;65.30
45008;DHT22;30743;52.008;5.644;2023-06-24T13:29:44;41.30;64.80
45008;DHT22;30743;52.008;5.644;2023-06-24T13:32:10;41.30;66.30
45008;DHT22;30743;52.008;5.644;2023-06-24T13:34:35;41.20;64.20
45008;DHT22;30743;52.008;5.644;2023-06-24T13:37:01;41.20;64.40
45008;DHT22;30743;52.008;5.644;2023-06-24T13:39:26;41.30;65.80
45008;DHT22;30743;52.008;5.644;2023-06-24T13:41:52;41.30;68.30
45008;DHT22;30743;52.008;5.644;2023-06-24T13:44:18;41.30;65.40
45008;DHT22;30743;52.008;5.644;2023-06-24T13:46:44;41.20;67.70
45008;DHT22;30743;52.008;5.644;2023-06-24T13:49:10;41.70;65.70
45008;DHT22;30743;52.008;5.644;2023-06-24T13:51:36;41.10;66.00
45008;DHT22;30743;52.008;5.644;2023-06-24T13:54:02;41.10;66.50
45008;DHT22;30743;52.008;5.644;2023-06-24T13:56:28;41.00;67.90
45008;DHT22;30743;52.008;5.644;2023-06-24T13:58:55;40.90;66.20
45008;DHT22;30743;52.008;5.644;2023-06-24T14:01:21;40.80;65.70
45008;DHT22;30743;52.008;5.644;2023-06-24T14:03:47;40.70;66.20
45008;DHT22;30743;52.008;5.644;2023-06-24T14:06:15;40.70;66.10
45008;DHT22;30743;52.008;5.644;2023-06-24T14:08:41;40.60;67.50
45008;DHT22;30743;52.008;5.644;2023-06-24T14:11:07;40.60;66.90
45008;DHT22;30743;52.008;5.644;2023-06-24T14:13:32;40.50;67.20
45008;DHT22;30743;52.008;5.644;2023-06-24T14:15:58;40.50;69.00
45008;DHT22;30743;52.008;5.644;2023-06-24T14:18:24;40.50;67.40
45008;DHT22;30743;52.008;5.644;2023-06-24T14:20:50;40.40;67.70
45008;DHT22;30743;52.008;5.644;2023-06-24T14:23:16;40.30;67.00
45008;DHT22;30743;52.008;5.644;2023-06-24T14:25:41;40.10;67.10
45008;DHT22;30743;52.008;5.644;2023-06-24T14:28:07;40.10;67.30
45008;DHT22;30743;52.008;5.644;2023-06-24T14:30:33;40.10;67.10
45008;DHT22;30743;52.008;5.644;2023-06-24T14:33:00;40.10;69.60
45008;DHT22;30743;52.008;5.644;2023-06-24T14:35:25;40.00;69.70
45008;DHT22;30743;52.008;5.644;2023-06-24T14:37:51;40.10;70.60
45008;DHT22;30743;52.008;5.644;2023-06-24T14:40:16;39.80;67.90
45008;DHT22;30743;52.008;5.644;2023-06-24T14:42:42;39.80;69.00
45008;DHT22;30743;52.008;5.644;2023-06-24T14:45:08;39.80;69.70
45008;DHT22;30743;52.008;5.644;2023-06-24T14:47:33;39.70;67.50
45008;DHT22;30743;52.008;5.644;2023-06-24T14:49:59;39.70;68.10
45008;DHT22;30743;52.008;5.644;2023-06-24T14:52:24;39.70;69.90
45008;DHT22;30743;52.008;5.644;2023-06-24T14:54:50;39.50;69.10
45008;DHT22;30743;52.008;5.644;2023-06-24T14:57:15;39.40;68.40
45008;DHT22;30743;52.008;5.644;2023-06-24T14:59:41;39.30;69.00
45008;DHT22;30743;52.008;5.644;2023-06-24T15:02:07;39.30;69.30
45008;DHT22;30743;52.008;5.644;2023-06-24T15:04:33;39.30;69.10
45008;DHT22;30743;52.008;5.644;2023-06-24T15:06:59;39.20;68.10
45008;DHT22;30743;52.008;5.644;2023-06-24T15:09:25;39.10;70.80
45008;DHT22;30743;52.008;5.644;2023-06-24T15:11:51;39.00;69.50
45008;DHT22;30743;52.008;5.644;2023-06-24T15:14:16;39.00;68.20
45008;DHT22;30743;52.008;5.644;2023-06-24T15:16:42;39.00;71.70
45008;DHT22;30743;52.008;5.644;2023-06-24T15:19:07;39.00;70.10
45008;DHT22;30743;52.008;5.644;2023-06-24T15:21:33;39.00;69.80
45008;DHT22;30743;52.008;5.644;2023-06-24T15:23:58;38.90;68.60
45008;DHT22;30743;52.008;5.644;2023-06-24T15:26:24;38.80;69.30
45008;DHT22;30743;52.008;5.644;2023-06-24T15:28:49;38.80;70.20
45008;DHT22;30743;52.008;5.644;2023-06-24T15:31:15;38.80;70.70
45008;DHT22;30743;52.008;5.644;2023-06-24T15:33:40;38.70;71.50
45008;DHT22;30743;52.008;5.644;2023-06-24T15:36:06;38.80;71.30
45008;DHT22;30743;52.008;5.644;2023-06-24T15:38:32;38.80;71.30
45008;DHT22;30743;52.008;5.644;2023-06-24T15:40:58;39.00;71.00
45008;DHT22;30743;52.008;5.644;2023-06-24T15:43:23;38.70;71.60